Time;durP1;ratioP1;P1;durP2;ratioP2;P2;SDS_P1;SDS_P2;PMS_P1;PMS_P2;Temp;Humidity;BMP_temperature;BMP_pressure;BME280_temperature;BME280_humidity;BME280_pressure;Samples;Min_cycle;Max_cycle;Signal;HPM_P1;HPM_P2
2022/12/13 00:01:20;;;;;;;50.28;25.40;;;-5.50;99.90;;;-7.27;100.00;96692.94;5092787;28;20401;-73
2022/12/13 00:03:47;;;;;;;45.47;25.08;;;-5.50;99.90;;;-7.37;100.00;96694.03;5092878;28;21025;-73
2022/12/13 00:06:13;;;;;;;51.38;25.30;;;-5.60;99.90;;;-7.41;100.00;96685.81;5075039;28;20422;-73
2022/12/13 00:08:40;;;;;;;46.08;24.50;;;-5.60;99.90;;;-7.42;100.00;96679.88;5093348;28;20393;-73
2022/12/13 00:11:11;;;;;;;43.28;22.00;;;-5.60;99.90;;;-7.43;100.00;96680.84;5093121;28;20429;-73
2022/12/13 00:13:38;;;;;;;45.42;23.80;;;-5.60;99.90;;;-7.45;100.00;96674.25;5092528;28;20781;-73
2022/12/13 00:16:08;;;;;;;52.47;28.55;;;-5.60;99.90;;;-7.46;100.00;96678.59;5075005;28;20406;-73
2022/12/13 00:18:34;;;;;;;46.58;24.15;;;-5.70;99.90;;;-7.47;100.00;96679.56;5093223;28;20428;-73
2022/12/13 00:21:06;;;;;;;40.20;22.48;;;-5.70;99.90;;;-7.48;100.00;96677.94;5093035;28;20493;-73
2022/12/13 00:23:32;;;;;;;47.65;23.15;;;-5.70;99.90;;;-7.48;100.00;96674.56;5092139;28;20751;-73
2022/12/13 00:26:02;;;;;;;46.33;23.92;;;-5.70;99.90;;;-7.51;100.00;96685.94;5092818;28;20414;-73
2022/12/13 00:28:28;;;;;;;48.60;25.73;;;-5.70;99.90;;;-7.51;100.00;96680.81;5092891;28;20485;-72
2022/12/13 00:30:57;;;;;;;53.35;29.00;;;-5.70;99.90;;;-7.51;100.00;96683.38;5092744;28;20841;-72
2022/12/13 00:33:22;;;;;;;52.95;29.20;;;-5.70;99.90;;;-7.50;100.00;96686.75;5091926;28;20398;-74
2022/12/13 00:35:48;;;;;;;50.37;27.23;;;-5.70;99.90;;;-7.50;100.00;96682.41;5092737;28;20401;-74
2022/12/13 00:38:16;;;;;;;52.30;27.25;;;-5.70;99.90;;;-7.52;100.00;96668.91;5092569;28;20822;-72
2022/12/13 00:40:41;;;;;;;47.53;24.83;;;-5.70;99.90;;;-7.54;100.00;96673.44;5092671;28;20504;-72
2022/12/13 00:43:07;;;;;;;52.97;26.17;;;-5.70;99.90;;;-7.55;100.00;96678.72;5091669;28;20398;-72
2022/12/13 00:45:33;;;;;;;58.72;31.35;;;-5.80;99.90;;;-7.56;100.00;96677.09;5074318;28;20480;-72
2022/12/13 00:47:59;;;;;;;54.60;29.10;;;-5.70;99.90;;;-7.56;100.00;96680.47;5092521;28;20898;-73
2022/12/13 00:50:25;;;;;;;52.40;27.20;;;-5.80;99.90;;;-7.56;100.00;96672.78;5092427;28;20811;-72
2022/12/13 00:52:51;;;;;;;51.13;26.23;;;-5.80;99.90;;;-7.55;100.00;96665.88;5072342;28;20460;-73
2022/12/13 00:55:18;;;;;;;49.22;26.05;;;-5.70;99.90;;;-7.59;100.00;96657.66;5092497;28;20466;-73
2022/12/13 00:57:44;;;;;;;50.22;24.85;;;-5.80;99.90;;;-7.59;100.00;96649.16;5092143;28;20420;-73
2022/12/13 01:00:11;;;;;;;52.47;27.30;;;-5.80;99.90;;;-7.58;100.00;96648.19;5092212;28;20975;-72
2022/12/13 01:02:37;;;;;;;52.38;27.63;;;-5.80;99.90;;;-7.61;100.00;96641.59;5091371;28;20467;-72
2022/12/13 01:05:04;;;;;;;52.65;26.98;;;-5.80;99.90;;;-7.58;100.00;96643.03;5092043;28;20410;-72
2022/12/13 01:07:30;;;;;;;54.17;28.10;;;-5.80;99.90;;;-7.52;100.00;96639.88;5091823;28;20409;-73
2022/12/13 01:09:57;;;;;;;47.15;25.23;;;-5.80;99.90;;;-7.60;100.00;96638.09;5092013;28;20477;-73
2022/12/13 01:12:24;;;;;;;53.25;27.10;;;-5.80;99.90;;;-7.63;100.00;96642.72;5091200;28;20405;-73
2022/12/13 01:14:50;;;;;;;48.73;26.23;;;-5.90;99.90;;;-7.66;100.00;96632.75;5091737;28;20394;-73
2022/12/13 01:17:16;;;;;;;49.95;26.85;;;-5.90;99.90;;;-7.65;100.00;96635.16;5091884;28;20429;-73
2022/12/13 01:19:42;;;;;;;48.95;26.27;;;-5.90;99.90;;;-7.65;100.00;96637.72;5091930;28;20426;-73
2022/12/13 01:22:10;;;;;;;54.67;27.70;;;-5.90;99.90;;;-7.62;100.00;96646.91;5091149;28;20455;-73
2022/12/13 01:24:36;;;;;;;51.28;26.35;;;-5.90;99.90;;;-7.64;100.00;96647.03;5091419;28;20394;-73
2022/12/13 01:27:02;;;;;;;55.80;27.38;;;-5.80;99.90;;;-7.62;100.00;96645.13;5091621;28;20402;-72
2022/12/13 01:29:30;;;;;;;51.30;26.63;;;-5.90;99.90;;;-7.72;100.00;96646.22;5091660;28;20409;-72
2022/12/13 01:31:55;;;;;;;46.50;25.05;;;-5.90;99.90;;;-7.74;100.00;96653.28;5072723;28;21098;-72
2022/12/13 01:34:23;;;;;;;52.63;27.40;;;-6.00;99.90;;;-7.67;100.00;96646.56;5091467;28;20405;-73
2022/12/13 01:36:49;;;;;;;49.13;25.48;;;-5.90;99.90;;;-7.76;100.00;96650.06;5091376;28;20394;-72
2022/12/13 01:39:18;;;;;;;53.60;28.13;;;-6.00;99.90;;;-7.73;100.00;96653.13;5091494;28;20436;-73
2022/12/13 01:41:47;;;;;;;53.20;27.20;;;-6.00;99.90;;;-7.83;100.00;96642.97;5090784;28;20572;-73
2022/12/13 01:44:58;;;;;;;46.25;24.30;;;-6.00;99.90;;;-7.85;100.00;96647.47;5091111;28;20528;-73
2022/12/13 01:47:29;;;;;;;55.35;28.63;;;-6.00;99.90;;;-7.83;100.00;96649.88;5091220;28;20401;-73
2022/12/13 01:50:01;;;;;;;53.67;27.40;;;-6.10;99.90;;;-7.84;100.00;96646.50;5091312;28;20756;-73
2022/12/13 01:52:31;;;;;;;55.97;28.33;;;-6.00;99.90;;;-7.86;100.00;96638.16;5090436;28;20394;-73
2022/12/13 01:54:58;;;;;;;57.70;27.90;;;-6.10;99.90;;;-7.86;100.00;96647.63;5091009;28;20386;-73
2022/12/13 01:57:25;;;;;;;51.75;26.85;;;-6.10;99.90;;;-7.87;100.00;96639.09;5090900;28;20876;-73
2022/12/13 01:59:52;;;;;;;52.97;26.65;;;-6.10;99.90;;;-7.91;100.00;96637.00;5091061;28;20401;-73
2022/12/13 02:02:20;;;;;;;59.03;28.20;;;-6.10;99.90;;;-7.85;100.00;96638.94;5072029;28;20476;-73
2022/12/13 02:04:54;;;;;;;55.63;28.08;;;-6.10;99.90;;;-7.91;100.00;96631.88;5090691;28;20425;-73
2022/12/13 02:07:27;;;;;;;47.97;26.17;;;-6.10;99.90;;;-7.93;100.00;96633.78;5090941;28;20417;-73
2022/12/13 02:09:57;;;;;;;51.45;27.35;;;-6.10;99.90;;;-7.96;100.00;96628.94;5090931;28;20395;-74
2022/12/13 02:12:25;;;;;;;57.00;28.48;;;-6.20;99.90;;;-7.93;100.00;96624.31;5090201;28;20421;-73
2022/12/13 02:14:51;;;;;;;51.65;27.38;;;-6.10;99.90;;;-8.00;100.00;96625.09;5090593;28;20404;-73
2022/12/13 02:17:27;;;;;;;53.80;27.73;;;-6.20;99.90;;;-7.99;100.00;96619.00;5090596;28;20402;-74
2022/12/13 02:20:47;;;;;;;52.15;26.75;;;-6.20;99.90;;;-8.04;100.00;96614.31;5090734;28;20908;-74
2022/12/13 02:23:41;;;;;;;54.50;26.75;;;-6.20;99.90;;;-8.08;100.00;96617.34;5089861;28;20505;-74
2022/12/13 02:26:31;;;;;;;52.50;26.73;;;-6.30;99.90;;;-8.09;100.00;96616.53;5090404;28;20406;-73
2022/12/13 02:29:42;;;;;;;50.83;25.83;;;-6.30;99.90;;;-8.10;100.00;96614.13;5090667;28;20386;-73
2022/12/13 02:32:16;;;;;;;54.47;27.67;;;-6.30;99.90;;;-8.13;100.00;96624.72;5089848;28;20390;-73
2022/12/13 02:34:50;;;;;;;54.38;27.15;;;-6.30;99.90;;;-8.12;100.00;96618.63;5090402;28;20434;-73
2022/12/13 02:37:23;;;;;;;47.37;24.73;;;-6.30;99.90;;;-8.14;100.00;96615.41;5091748;28;20459;-73
2022/12/13 02:39:56;;;;;;;48.88;25.60;;;-6.30;99.90;;;-8.17;100.00;96616.50;5091129;28;20440;-73
2022/12/13 02:42:28;;;;;;;52.15;26.73;;;-6.40;99.90;;;-8.19;100.00;96615.06;5089988;28;20856;-74
2022/12/13 02:45:02;;;;;;;48.10;25.42;;;-6.40;99.90;;;-8.20;100.00;96611.69;5091907;28;20413;-73
2022/12/13 02:47:31;;;;;;;53.13;26.27;;;-6.40;99.90;;;-8.23;100.00;96612.78;5094342;28;20394;-73
2022/12/13 02:50:02;;;;;;;54.13;28.57;;;-6.40;99.90;;;-8.23;100.00;96609.41;5094901;28;20393;-72
2022/12/13 02:52:31;;;;;;;47.72;24.75;;;-6.40;99.90;;;-8.27;100.00;96601.22;5091111;28;20993;-74
2022/12/13 02:54:58;;;;;;;60.38;28.88;;;-6.40;99.90;;;-8.27;100.00;96610.69;5090074;28;20439;-72
2022/12/13 02:57:30;;;;;;;51.95;26.83;;;-6.40;99.90;;;-8.29;100.00;96615.19;5090001;28;20415;-73
2022/12/13 03:00:00;;;;;;;52.28;27.10;;;-6.50;99.90;;;-8.33;100.00;96619.00;5090258;28;20394;-73
2022/12/13 03:02:38;;;;;;;50.33;26.63;;;-6.50;99.90;;;-8.33;100.00;96613.88;5089369;28;20398;-73
2022/12/13 03:08:20;;;;;;;55.67;27.20;;;-6.50;99.90;;;-8.31;100.00;96602.53;5090055;28;20482;-72
2022/12/13 03:10:58;;;;;;;56.47;28.33;;;-6.50;99.90;;;-8.33;100.00;96599.28;5089891;28;20446;-73
2022/12/13 03:13:35;;;;;;;54.55;27.75;;;-6.50;99.90;;;-8.30;100.00;96591.28;5089086;28;20390;-73
2022/12/13 03:16:18;;;;;;;52.72;26.25;;;-6.50;99.90;;;-8.38;100.00;96582.75;5089313;28;20826;-73
2022/12/13 03:18:46;;;;;;;55.03;26.27;;;-6.50;99.90;;;-8.39;100.00;96581.13;5089936;28;20444;-73
2022/12/13 03:21:12;;;;;;;49.50;25.33;;;-6.50;99.90;;;-8.41;100.00;96576.16;5089708;28;20398;-73
2022/12/13 03:23:38;;;;;;;53.70;27.35;;;-6.60;99.90;;;-8.43;100.00;96572.16;5089516;28;20432;-73
2022/12/13 03:26:10;;;;;;;49.97;26.50;;;-6.60;99.90;;;-8.43;100.00;96570.41;5089634;28;21092;-73
2022/12/13 03:28:36;;;;;;;61.00;29.67;;;-6.60;99.90;;;-8.44;100.00;96581.63;5089822;28;20394;-72
2022/12/13 03:31:02;;;;;;;53.83;26.43;;;-6.60;99.90;;;-8.47;100.00;96581.91;5089627;28;20430;-73
2022/12/13 03:33:28;;;;;;;53.80;27.30;;;-6.60;99.90;;;-8.50;100.00;96584.78;5088855;28;20398;-73
2022/12/13 03:35:56;;;;;;;57.13;28.35;;;-6.70;99.90;;;-8.45;100.00;96581.75;5089326;28;20437;-73
2022/12/13 03:38:23;;;;;;;54.92;25.98;;;-6.60;99.90;;;-8.53;100.00;96576.59;5089869;28;20393;-73
2022/12/13 03:40:52;;;;;;;53.47;26.90;;;-6.70;99.90;;;-8.53;100.00;96574.00;5089576;28;20832;-73
2022/12/13 03:43:18;;;;;;;56.60;28.42;;;-6.70;99.90;;;-8.48;100.00;96577.72;5088817;28;20398;-73
2022/12/13 03:45:44;;;;;;;50.33;25.52;;;-6.60;99.90;;;-8.54;100.00;96575.78;5089431;28;20424;-72
2022/12/13 03:48:10;;;;;;;58.40;27.33;;;-6.70;99.90;;;-8.52;100.00;96573.88;5089503;28;20884;-72
2022/12/13 03:50:35;;;;;;;55.38;26.42;;;-6.70;99.90;;;-8.56;100.00;96576.88;5089592;28;20475;-72
2022/12/13 03:53:03;;;;;;;54.95;26.73;;;-6.70;99.90;;;-8.62;100.00;96573.16;5088803;28;20402;-72
2022/12/13 03:55:29;;;;;;;49.75;25.00;;;-6.70;99.90;;;-8.63;100.00;96569.78;5089468;28;20401;-74
2022/12/13 03:57:55;;;;;;;55.88;27.58;;;-6.80;99.90;;;-8.59;100.00;96565.19;5089523;28;20405;-72
2022/12/13 04:00:21;;;;;;;55.05;26.52;;;-6.80;99.90;;;-8.65;100.00;96565.78;5089385;28;20473;-73
2022/12/13 04:02:47;;;;;;;49.28;26.13;;;-6.80;99.90;;;-8.69;100.00;96570.41;5088685;28;20402;-74
2022/12/13 04:05:14;;;;;;;53.88;25.80;;;-6.80;99.90;;;-8.70;100.00;96557.72;5071328;28;20410;-73
2022/12/13 04:07:40;;;;;;;53.20;27.67;;;-6.80;99.90;;;-8.69;100.00;96561.91;5089391;28;20394;-73
2022/12/13 04:10:08;;;;;;;58.42;27.55;;;-6.80;99.90;;;-8.70;100.00;96555.97;5089285;28;20404;-73
2022/12/13 04:15:18;;;;;;;54.05;26.70;;;-6.90;99.90;;;-8.73;100.00;96563.97;5089397;28;20389;-73
2022/12/13 04:17:44;;;;;;;48.45;24.30;;;-6.90;99.90;;;-8.75;100.00;96558.19;5089323;28;20401;-73
2022/12/13 04:20:11;;;;;;;57.03;27.60;;;-6.90;99.90;;;-8.71;100.00;96556.91;5089340;28;20413;-73
2022/12/13 04:22:37;;;;;;;49.53;24.63;;;-6.90;99.90;;;-8.74;100.00;96561.56;5088513;28;20737;-72
2022/12/13 04:25:03;;;;;;;55.60;28.33;;;-6.90;99.90;;;-8.68;100.00;96561.75;5089144;28;20464;-72
2022/12/13 04:27:30;;;;;;;51.90;26.38;;;-6.90;99.90;;;-8.74;100.00;96569.25;5089290;28;20497;-73
2022/12/13 04:29:56;;;;;;;55.90;26.95;;;-6.90;99.90;;;-8.78;100.00;96565.38;5092701;28;20763;-73
2022/12/13 04:32:22;;;;;;;50.40;25.40;;;-6.90;99.90;;;-8.78;100.00;96566.19;5092171;28;20480;-73
2022/12/13 04:34:48;;;;;;;53.10;26.20;;;-7.00;99.90;;;-8.77;100.00;96565.22;5092429;28;20394;-73
2022/12/13 04:37:14;;;;;;;48.08;25.27;;;-6.90;99.90;;;-8.79;100.00;96553.50;5092620;28;20796;-73
2022/12/13 04:39:40;;;;;;;57.43;27.00;;;-6.90;99.90;;;-8.80;100.00;96565.53;5092709;28;20420;-73
2022/12/13 04:42:06;;;;;;;57.85;26.52;;;-7.00;99.90;;;-8.80;100.00;96565.53;5091926;28;20402;-73
2022/12/13 04:44:33;;;;;;;55.78;26.98;;;-7.00;99.90;;;-8.78;100.00;96562.81;5092274;28;20446;-73
2022/12/13 04:47:01;;;;;;;51.15;26.33;;;-7.00;99.90;;;-8.80;100.00;96562.19;5092415;28;20441;-73
2022/12/13 04:49:27;;;;;;;49.23;25.20;;;-7.00;99.90;;;-8.82;100.00;96562.31;5080978;28;20469;-73
2022/12/13 04:51:53;;;;;;;52.43;26.20;;;-7.00;99.90;;;-8.83;100.00;96555.56;5071460;28;20507;-73
2022/12/13 04:54:19;;;;;;;49.95;24.55;;;-7.00;99.90;;;-8.82;100.00;96554.63;5071998;28;20490;-74
2022/12/13 04:56:45;;;;;;;51.13;26.65;;;-7.00;99.90;;;-8.82;100.00;96553.81;5083067;22;20824;-70
2022/12/13 04:59:11;;;;;;;49.60;24.80;;;-7.00;99.90;;;-8.83;100.00;96554.78;5071435;28;20395;-71
2022/12/13 05:01:38;;;;;;;51.90;25.73;;;-7.00;99.90;;;-8.85;100.00;96554.91;5071023;28;20399;-70
2022/12/13 05:04:04;;;;;;;48.22;24.98;;;-7.00;99.90;;;-8.86;100.00;96557.63;5068091;28;20414;-69
2022/12/13 05:06:30;;;;;;;53.47;26.30;;;-7.00;99.90;;;-8.79;100.00;96554.31;5068332;28;20413;-70
2022/12/13 05:08:56;;;;;;;54.20;26.70;;;-7.00;99.90;;;-8.82;100.00;96549.50;5061151;28;20435;-70
2022/12/13 05:11:22;;;;;;;48.25;23.52;;;-7.00;99.90;;;-8.88;100.00;96550.09;5063263;28;20408;-70
2022/12/13 05:13:48;;;;;;;53.95;25.70;;;-7.00;99.90;;;-8.84;100.00;96548.03;5060267;28;20433;-70
2022/12/13 05:16:14;;;;;;;46.17;24.60;;;-7.00;99.90;;;-8.88;100.00;96554.44;5062220;28;20433;-69
2022/12/13 05:18:42;;;;;;;49.67;24.50;;;-7.00;99.90;;;-8.89;100.00;96556.19;5060972;28;20420;-69
2022/12/13 05:21:10;;;;;;;51.25;23.95;;;-7.00;99.90;;;-8.87;100.00;96553.47;5061895;28;20406;-71
2022/12/13 05:23:37;;;;;;;46.30;22.45;;;-7.00;99.90;;;-8.94;100.00;96543.00;5059929;28;20399;-70
2022/12/13 05:26:03;;;;;;;45.30;21.95;;;-7.10;99.90;;;-8.95;100.00;96543.97;5059217;28;20435;-70
2022/12/13 05:28:30;;;;;;;46.10;23.58;;;-7.10;99.90;;;-8.93;100.00;96543.81;5062466;28;20963;-69
2022/12/13 05:30:58;;;;;;;39.13;21.38;;;-7.10;99.90;;;-8.95;100.00;96543.16;5061792;28;20405;-69
2022/12/13 05:33:25;;;;;;;43.20;22.17;;;-7.10;99.90;;;-8.96;100.00;96541.56;5046021;28;20413;-70
2022/12/13 05:35:52;;;;;;;40.42;21.70;;;-7.10;99.90;;;-8.98;100.00;96543.47;5059242;28;20435;-70
2022/12/13 05:38:18;;;;;;;41.22;21.15;;;-7.10;99.90;;;-9.01;100.00;96542.00;5061489;28;20430;-70
2022/12/13 05:40:44;;;;;;;47.08;23.08;;;-7.20;99.90;;;-8.96;100.00;96549.25;5059807;28;20887;-71
2022/12/13 05:43:10;;;;;;;41.57;21.47;;;-7.10;99.90;;;-9.02;100.00;96543.75;5041903;28;20462;-70
2022/12/13 05:45:36;;;;;;;44.75;23.20;;;-7.20;99.90;;;-9.02;100.00;96538.63;5061333;28;20417;-70
2022/12/13 05:48:03;;;;;;;43.10;21.80;;;-7.20;99.90;;;-9.01;100.00;96536.88;5059485;28;20970;-71
2022/12/13 05:50:29;;;;;;;48.60;23.02;;;-7.20;99.90;;;-9.03;100.00;96544.72;5061779;28;20475;-70
2022/12/13 05:55:32;;;;;;;47.05;24.13;;;-7.20;99.90;;;-8.95;100.00;96533.72;5183796;23;20427;-71
2022/12/13 05:57:58;;;;;;;44.30;22.13;;;-7.10;99.90;;;-9.00;100.00;96530.78;5047221;28;20453;-71
2022/12/13 06:00:25;;;;;;;41.90;21.67;;;-7.20;99.90;;;-9.08;100.00;96523.84;5041219;28;20401;-72
2022/12/13 06:02:51;;;;;;;40.83;20.63;;;-7.20;99.90;;;-9.10;100.00;96527.53;5012197;28;20410;-72
2022/12/13 06:05:17;;;;;;;41.00;21.08;;;-7.30;99.90;;;-9.09;100.00;96524.78;5030818;28;20425;-72
2022/12/13 06:07:43;;;;;;;41.75;21.88;;;-7.20;99.90;;;-9.10;100.00;96528.34;5046118;22;21508;-73
2022/12/13 06:10:09;;;;;;;43.75;21.38;;;-7.20;99.90;;;-9.09;100.00;96535.06;5049179;28;20516;-73
2022/12/13 06:12:37;;;;;;;46.30;22.50;;;-7.20;99.90;;;-9.05;100.00;96533.81;5049828;28;20433;-73
2022/12/13 06:15:05;;;;;;;41.38;20.30;;;-7.20;99.90;;;-9.11;100.00;96531.06;5050481;28;20455;-74
2022/12/13 06:17:31;;;;;;;43.85;22.27;;;-7.30;99.90;;;-9.12;100.00;96535.38;5032720;28;20424;-74
2022/12/13 06:19:57;;;;;;;42.53;20.73;;;-7.30;99.90;;;-9.10;100.00;96533.47;5050528;28;20405;-74
2022/12/13 06:22:23;;;;;;;44.60;22.80;;;-7.30;99.90;;;-9.07;100.00;96538.28;5049850;28;20394;-74
2022/12/13 06:24:49;;;;;;;45.10;22.33;;;-7.20;99.90;;;-9.04;100.00;96538.00;5050178;28;20740;-74
2022/12/13 06:27:15;;;;;;;40.95;21.38;;;-7.20;99.90;;;-9.09;100.00;96536.81;5050252;28;20498;-73
2022/12/13 06:29:42;;;;;;;42.63;21.60;;;-7.30;99.90;;;-9.15;100.00;96535.66;5050390;28;20416;-73
2022/12/13 06:32:09;;;;;;;40.25;20.50;;;-7.30;99.90;;;-9.15;100.00;96524.59;5031971;28;20413;-73
2022/12/13 06:34:36;;;;;;;50.83;24.10;;;-7.30;99.90;;;-9.15;100.00;96527.16;5050035;28;20405;-73
2022/12/13 06:37:04;;;;;;;43.53;22.47;;;-7.30;99.90;;;-9.17;100.00;96529.88;5050358;28;20393;-72
2022/12/13 06:39:30;;;;;;;46.10;22.52;;;-7.30;99.90;;;-9.17;100.00;96535.00;5050019;28;20427;-73
2022/12/13 06:41:56;;;;;;;46.00;22.70;;;-7.30;99.90;;;-9.12;100.00;96542.25;5049423;28;20410;-73
2022/12/13 06:44:22;;;;;;;46.42;22.63;;;-7.30;99.90;;;-9.18;100.00;96532.59;5050027;28;20401;-73
2022/12/13 06:46:49;;;;;;;40.10;20.92;;;-7.40;99.90;;;-9.19;100.00;96529.22;5050019;28;21058;-74
2022/12/13 06:49:15;;;;;;;47.67;22.63;;;-7.40;99.90;;;-9.20;100.00;96529.38;5049281;28;20922;-72
2022/12/13 06:51:41;;;;;;;43.77;21.90;;;-7.40;99.90;;;-9.22;100.00;96544.91;5049246;28;20496;-73
2022/12/13 06:54:07;;;;;;;48.60;23.02;;;-7.40;99.90;;;-9.21;100.00;96540.56;5049697;28;20850;-74
2022/12/13 06:56:33;;;;;;;47.10;23.67;;;-7.40;99.90;;;-9.15;100.00;96553.59;5049904;28;20405;-74
2022/12/13 06:58:59;;;;;;;49.05;24.05;;;-7.40;99.90;;;-9.18;100.00;96547.97;5032033;28;20820;-72
2022/12/13 07:01:24;;;;;;;51.08;25.58;;;-7.40;99.90;;;-9.19;100.00;96557.44;5049438;28;20509;-72
2022/12/13 07:03:54;;;;;;;49.35;24.00;;;-7.30;99.90;;;-9.18;100.00;96559.03;5049561;28;20405;-73
2022/12/13 07:06:22;;;;;;;47.85;23.48;;;-7.40;99.90;;;-9.23;100.00;96555.28;5049886;28;20471;-72
2022/12/13 07:08:50;;;;;;;48.45;22.38;;;-7.40;99.90;;;-9.24;100.00;96551.13;5049685;28;20397;-72
2022/12/13 07:11:18;;;;;;;53.73;23.03;;;-7.40;99.90;;;-9.24;100.00;96551.13;5049932;28;20405;-72
2022/12/13 07:13:44;;;;;;;52.67;23.57;;;-7.40;99.90;;;-9.22;100.00;96564.59;5032479;28;20923;-71
2022/12/13 07:16:11;;;;;;;45.95;22.17;;;-7.40;99.90;;;-9.22;100.00;96564.59;5050401;28;20457;-73
2022/12/13 07:18:37;;;;;;;49.20;23.40;;;-7.40;99.90;;;-9.15;100.00;96563.03;5050725;28;20443;-73
2022/12/13 07:21:06;;;;;;;53.17;23.58;;;-7.40;99.90;;;-9.15;100.00;96568.16;5054238;28;20428;-73
2022/12/13 07:23:33;;;;;;;52.55;24.23;;;-7.30;99.90;;;-9.12;100.00;96560.19;5053152;28;20488;-73
2022/12/13 07:26:00;;;;;;;44.53;22.30;;;-7.30;99.90;;;-9.15;100.00;96568.97;5052818;28;20960;-73
2022/12/13 07:28:25;;;;;;;49.40;23.90;;;-7.30;99.90;;;-9.12;100.00;96563.56;5049679;28;20475;-73
2022/12/13 07:30:51;;;;;;;43.58;21.33;;;-7.30;99.90;;;-9.11;100.00;96559.25;5049517;28;20484;-72
2022/12/13 07:33:17;;;;;;;42.23;21.13;;;-7.30;99.90;;;-9.08;100.00;96558.94;5039275;28;20492;-72
2022/12/13 07:35:43;;;;;;;40.67;20.50;;;-7.30;99.90;;;-9.05;100.00;96563.75;5046222;28;20420;-72
2022/12/13 07:38:11;;;;;;;47.88;22.58;;;-7.20;99.90;;;-9.01;100.00;96560.75;5048980;28;20466;-72
2022/12/13 07:40:39;;;;;;;50.00;22.50;;;-7.20;99.90;;;-8.95;100.00;96561.13;5048202;28;20410;-72
2022/12/13 07:43:05;;;;;;;44.28;22.73;;;-7.10;99.90;;;-8.92;100.00;96565.94;5048441;28;20429;-71
2022/12/13 07:45:32;;;;;;;44.28;21.52;;;-7.10;99.90;;;-8.87;100.00;96571.44;5049081;28;20445;-71
2022/12/13 07:48:02;;;;;;;47.10;22.45;;;-7.00;99.90;;;-8.85;100.00;96569.50;5049270;28;20404;-72
2022/12/13 07:50:28;;;;;;;43.45;22.02;;;-7.10;99.90;;;-8.81;100.00;96575.94;5029376;28;20469;-72
2022/12/13 07:52:54;;;;;;;45.63;22.30;;;-7.00;99.90;;;-8.76;100.00;96574.53;5048211;28;20810;-71
2022/12/13 07:55:21;;;;;;;43.42;21.98;;;-7.00;99.90;;;-8.73;100.00;96576.00;5049197;28;20401;-71
2022/12/13 07:57:47;;;;;;;41.08;21.48;;;-6.90;99.90;;;-8.69;100.00;96580.66;5039898;28;20418;-71
2022/12/13 08:00:14;;;;;;;48.83;22.42;;;-6.90;99.90;;;-8.64;100.00;96585.31;5044830;28;20407;-72
2022/12/13 08:02:40;;;;;;;45.80;23.88;;;-6.90;99.90;;;-8.61;100.00;96580.72;5025373;28;20819;-72
2022/12/13 08:05:07;;;;;;;42.95;22.40;;;-6.80;99.90;;;-8.55;100.00;96588.75;5045528;28;20414;-73
2022/12/13 08:07:33;;;;;;;45.53;23.90;;;-6.80;99.90;;;-8.48;100.00;96590.56;5050272;28;20396;-72
2022/12/13 08:09:59;;;;;;;47.40;23.25;;;-6.70;99.90;;;-8.41;100.00;96590.75;5049179;28;20935;-72
2022/12/13 08:12:26;;;;;;;45.25;23.55;;;-6.60;99.90;;;-8.37;100.00;96582.59;5041420;28;20484;-72
2022/12/13 08:14:52;;;;;;;40.88;21.58;;;-6.60;99.90;;;-8.31;100.00;96584.56;5043216;28;20401;-72
2022/12/13 08:17:18;;;;;;;45.88;25.13;;;-6.50;99.90;;;-8.25;100.00;96583.91;5024000;28;20422;-72
2022/12/13 08:19:44;;;;;;;45.90;23.85;;;-6.50;99.90;;;-8.19;100.00;96579.91;5042095;28;20438;-72
2022/12/13 08:22:12;;;;;;;46.23;24.43;;;-6.40;99.90;;;-8.14;100.00;96592.31;5042297;28;20462;-73
2022/12/13 08:24:39;;;;;;;48.50;24.45;;;-6.40;99.90;;;-8.10;100.00;96589.25;5041098;28;20395;-72
2022/12/13 08:27:05;;;;;;;45.05;23.80;;;-6.40;99.90;;;-8.05;100.00;96583.69;5043211;28;20517;-72
2022/12/13 08:29:35;;;;;;;42.97;23.45;;;-6.30;99.90;;;-7.99;100.00;96586.41;5040986;28;20482;-72
2022/12/13 08:32:02;;;;;;;47.38;26.15;;;-6.20;99.90;;;-7.94;100.00;96580.81;5041093;28;20398;-72
2022/12/13 08:34:28;;;;;;;47.88;24.35;;;-6.20;99.90;;;-7.88;100.00;96586.13;5042769;28;20463;-72
2022/12/13 08:36:54;;;;;;;45.03;25.73;;;-6.10;99.90;;;-7.83;100.00;96581.34;5041126;28;20415;-70
2022/12/13 08:39:20;;;;;;;46.88;23.88;;;-6.10;99.90;;;-7.78;100.00;96580.06;5040395;28;21230;-71
2022/12/13 08:41:46;;;;;;;46.17;24.43;;;-6.00;99.90;;;-7.74;100.00;96587.28;5048024;28;20455;-71
2022/12/13 08:44:12;;;;;;;49.35;27.70;;;-6.00;99.90;;;-7.70;100.00;96580.88;5051230;28;20445;-73
2022/12/13 08:46:39;;;;;;;56.77;28.60;;;-6.00;99.90;;;-7.68;100.00;96581.53;5051896;28;20913;-72
2022/12/13 08:49:05;;;;;;;49.03;25.45;;;-5.90;99.90;;;-7.63;100.00;96588.75;5050127;28;20936;-72
2022/12/13 08:51:31;;;;;;;44.72;23.90;;;-5.90;99.90;;;-7.57;100.00;96593.25;5050395;28;20867;-72
2022/12/13 08:53:57;;;;;;;55.25;24.92;;;-5.90;99.90;;;-7.52;100.00;96594.38;5051506;28;20767;-73
2022/12/13 08:56:23;;;;;;;46.83;24.00;;;-5.80;99.90;;;-7.47;100.00;96597.31;5051865;28;20383;-72
2022/12/13 08:58:50;;;;;;;49.20;26.15;;;-5.80;99.90;;;-7.43;100.00;96596.00;5051921;28;20411;-73
2022/12/13 09:01:16;;;;;;;49.22;25.90;;;-5.70;99.90;;;-7.38;100.00;96595.56;5051376;28;20848;-72
2022/12/13 09:03:43;;;;;;;48.80;24.90;;;-5.70;99.90;;;-7.31;100.00;96585.44;5051463;28;20409;-73
2022/12/13 09:06:13;;;;;;;50.17;24.57;;;-5.60;99.90;;;-7.25;100.00;96582.22;5051708;28;20417;-72
2022/12/13 09:08:40;;;;;;;48.53;27.70;;;-5.60;99.90;;;-7.15;100.00;96578.53;5051518;28;20459;-72
2022/12/13 09:11:07;;;;;;;50.28;26.27;;;-5.50;99.90;;;-7.05;100.00;96574.03;5051566;28;20405;-72
2022/12/13 09:13:36;;;;;;;50.40;27.92;;;-5.40;99.90;;;-6.94;100.00;96580.63;5049972;28;20879;-73
2022/12/13 09:16:10;;;;;;;46.70;27.17;;;-5.30;99.90;;;-6.85;100.00;96578.84;5051672;28;20895;-72
2022/12/13 09:18:36;;;;;;;51.95;27.70;;;-5.20;99.90;;;-6.78;100.00;96574.66;5051551;28;20459;-72
2022/12/13 09:21:07;;;;;;;45.72;25.63;;;-5.10;99.90;;;-6.69;100.00;96574.47;5051549;28;20401;-72
2022/12/13 09:23:33;;;;;;;50.08;25.83;;;-5.00;99.90;;;-6.61;100.00;96570.28;5050923;28;20409;-71
2022/12/13 09:26:00;;;;;;;48.30;26.97;;;-5.00;99.90;;;-6.55;100.00;96577.34;5051509;28;21084;-73
2022/12/13 09:28:26;;;;;;;50.70;26.08;;;-4.90;99.90;;;-6.46;100.00;96578.91;5051379;28;20437;-73
2022/12/13 09:30:52;;;;;;;49.78;25.30;;;-4.80;99.90;;;-6.38;100.00;96577.13;5051436;28;20922;-73
2022/12/13 09:33:18;;;;;;;50.17;26.87;;;-4.70;99.90;;;-6.28;100.00;96570.03;5032644;28;20617;-73
2022/12/13 09:35:44;;;;;;;50.17;27.10;;;-4.60;99.90;;;-6.17;100.00;96565.50;5051292;28;20905;-73
2022/12/13 09:38:12;;;;;;;50.00;28.35;;;-4.50;99.90;;;-6.04;100.00;96578.63;5051399;28;20437;-74
2022/12/13 09:40:41;;;;;;;46.35;26.65;;;-4.40;99.90;;;-5.89;100.00;96575.19;5033252;28;20951;-73
2022/12/13 09:43:11;;;;;;;49.33;25.48;;;-4.30;99.90;;;-5.73;100.00;96579.44;5050576;28;20409;-73
2022/12/13 09:45:41;;;;;;;46.63;27.23;;;-4.10;99.90;;;-5.62;100.00;96591.13;5051554;28;20776;-74
2022/12/13 09:48:07;;;;;;;46.88;26.85;;;-4.00;99.90;;;-5.49;100.00;96583.66;5050943;28;20907;-74
2022/12/13 09:50:34;;;;;;;47.03;26.90;;;-3.90;99.90;;;-5.36;100.00;96589.03;5032754;28;20423;-72
2022/12/13 09:53:03;;;;;;;46.58;25.30;;;-3.80;99.90;;;-5.20;100.00;96588.94;5049958;28;20890;-74
2022/12/13 09:55:37;;;;;;;43.00;23.58;;;-3.70;99.90;;;-4.99;100.00;96583.13;5051087;28;20405;-73
2022/12/13 09:58:10;;;;;;;44.15;23.63;;;-3.40;99.90;;;-4.77;100.00;96573.75;5050913;28;20393;-73
2022/12/13 10:00:37;;;;;;;36.97;23.40;;;-3.20;99.90;;;-4.41;100.00;96574.69;5050814;28;20404;-73
2022/12/13 10:03:03;;;;;;;40.00;24.08;;;-2.90;99.90;;;-4.06;100.00;96578.31;5050081;28;20736;-74
2022/12/13 10:05:32;;;;;;;42.22;23.42;;;-2.50;99.90;;;-3.68;100.00;96566.06;5050728;28;20425;-73
2022/12/13 10:08:03;;;;;;;37.03;21.73;;;-2.20;99.90;;;-3.12;100.00;96566.22;5050357;28;20444;-73
2022/12/13 10:10:30;;;;;;;38.70;22.15;;;-1.60;99.90;;;-2.81;100.00;96564.13;5050468;28;20452;-72
2022/12/13 10:13:07;;;;;;;38.50;22.63;;;-1.30;99.90;;;-2.39;100.00;96560.63;5049740;28;20401;-73